sensor_id;sensor_type;location;lat;lon;timestamp;P1;durP1;ratioP1;P2;durP2;ratioP2
23175;SDS011;19910;42.652;23.332;2023-07-13T00:00:41;6.55;;;3.22;;
23175;SDS011;19910;42.652;23.332;2023-07-13T00:03:08;4.50;;;3.13;;
23175;SDS011;19910;42.652;23.332;2023-07-13T00:05:39;7.00;;;3.83;;
23175;SDS011;19910;42.652;23.332;2023-07-13T00:08:07;5.78;;;3.47;;
23175;SDS011;19910;42.652;23.332;2023-07-13T00:10:38;5.85;;;3.35;;
23175;SDS011;19910;42.652;23.332;2023-07-13T00:13:07;10.55;;;3.63;;
23175;SDS011;19910;42.652;23.332;2023-07-13T00:15:33;8.15;;;4.15;;
23175;SDS011;19910;42.652;23.332;2023-07-13T00:18:01;5.05;;;3.70;;
23175;SDS011;19910;42.652;23.332;2023-07-13T00:20:28;6.65;;;3.20;;
23175;SDS011;19910;42.652;23.332;2023-07-13T00:22:54;6.90;;;4.03;;
23175;SDS011;19910;42.652;23.332;2023-07-13T00:25:23;5.18;;;3.78;;
23175;SDS011;19910;42.652;23.332;2023-07-13T00:27:53;6.47;;;4.50;;
23175;SDS011;19910;42.652;23.332;2023-07-13T00:30:20;6.95;;;3.47;;
23175;SDS011;19910;42.652;23.332;2023-07-13T00:32:47;7.03;;;3.53;;
23175;SDS011;19910;42.652;23.332;2023-07-13T00:35:14;10.70;;;4.05;;
23175;SDS011;19910;42.652;23.332;2023-07-13T00:37:41;6.07;;;3.33;;
23175;SDS011;19910;42.652;23.332;2023-07-13T00:40:09;8.02;;;3.55;;
23175;SDS011;19910;42.652;23.332;2023-07-13T00:42:39;7.43;;;3.60;;
23175;SDS011;19910;42.652;23.332;2023-07-13T00:45:07;6.82;;;4.00;;
23175;SDS011;19910;42.652;23.332;2023-07-13T00:48:12;9.43;;;3.55;;
23175;SDS011;19910;42.652;23.332;2023-07-13T00:50:41;5.95;;;3.80;;
23175;SDS011;19910;42.652;23.332;2023-07-13T00:53:09;6.07;;;4.05;;
23175;SDS011;19910;42.652;23.332;2023-07-13T00:55:36;6.30;;;3.90;;
23175;SDS011;19910;42.652;23.332;2023-07-13T00:58:05;7.22;;;3.78;;
23175;SDS011;19910;42.652;23.332;2023-07-13T01:00:33;6.05;;;3.58;;
23175;SDS011;19910;42.652;23.332;2023-07-13T01:03:02;7.28;;;3.47;;
23175;SDS011;19910;42.652;23.332;2023-07-13T01:05:31;6.55;;;3.92;;
23175;SDS011;19910;42.652;23.332;2023-07-13T01:07:59;6.25;;;3.78;;
23175;SDS011;19910;42.652;23.332;2023-07-13T01:10:29;4.78;;;3.78;;
23175;SDS011;19910;42.652;23.332;2023-07-13T01:13:03;6.50;;;3.67;;
23175;SDS011;19910;42.652;23.332;2023-07-13T01:15:39;8.63;;;3.80;;
23175;SDS011;19910;42.652;23.332;2023-07-13T01:18:07;6.25;;;3.60;;
23175;SDS011;19910;42.652;23.332;2023-07-13T01:20:36;9.00;;;3.80;;
23175;SDS011;19910;42.652;23.332;2023-07-13T01:23:05;6.75;;;3.67;;
23175;SDS011;19910;42.652;23.332;2023-07-13T01:25:34;7.40;;;4.20;;
23175;SDS011;19910;42.652;23.332;2023-07-13T01:28:01;7.32;;;4.10;;
23175;SDS011;19910;42.652;23.332;2023-07-13T01:30:29;6.18;;;3.78;;
23175;SDS011;19910;42.652;23.332;2023-07-13T01:32:57;6.18;;;3.50;;
23175;SDS011;19910;42.652;23.332;2023-07-13T01:35:23;4.68;;;3.28;;
23175;SDS011;19910;42.652;23.332;2023-07-13T01:37:52;7.85;;;3.55;;
23175;SDS011;19910;42.652;23.332;2023-07-13T01:40:20;7.60;;;3.83;;
23175;SDS011;19910;42.652;23.332;2023-07-13T01:42:47;6.60;;;3.95;;
23175;SDS011;19910;42.652;23.332;2023-07-13T01:45:14;5.22;;;3.70;;
23175;SDS011;19910;42.652;23.332;2023-07-13T01:47:41;7.90;;;4.00;;
23175;SDS011;19910;42.652;23.332;2023-07-13T01:50:08;6.30;;;3.95;;
23175;SDS011;19910;42.652;23.332;2023-07-13T01:52:36;6.78;;;3.88;;
23175;SDS011;19910;42.652;23.332;2023-07-13T01:55:03;5.03;;;3.75;;
23175;SDS011;19910;42.652;23.332;2023-07-13T01:57:31;10.23;;;4.07;;
23175;SDS011;19910;42.652;23.332;2023-07-13T01:59:58;9.43;;;4.15;;
23175;SDS011;19910;42.652;23.332;2023-07-13T02:02:25;9.13;;;4.03;;
23175;SDS011;19910;42.652;23.332;2023-07-13T02:04:52;7.90;;;4.18;;
23175;SDS011;19910;42.652;23.332;2023-07-13T02:07:19;9.23;;;4.20;;
23175;SDS011;19910;42.652;23.332;2023-07-13T02:09:45;5.95;;;3.75;;
23175;SDS011;19910;42.652;23.332;2023-07-13T02:12:12;8.95;;;4.07;;
23175;SDS011;19910;42.652;23.332;2023-07-13T02:14:41;7.60;;;4.20;;
23175;SDS011;19910;42.652;23.332;2023-07-13T02:17:08;6.07;;;4.00;;
23175;SDS011;19910;42.652;23.332;2023-07-13T02:19:35;6.10;;;4.30;;
23175;SDS011;19910;42.652;23.332;2023-07-13T02:22:02;5.90;;;4.07;;
23175;SDS011;19910;42.652;23.332;2023-07-13T02:24:29;6.35;;;4.00;;
23175;SDS011;19910;42.652;23.332;2023-07-13T02:26:56;6.63;;;4.70;;
23175;SDS011;19910;42.652;23.332;2023-07-13T02:29:23;5.18;;;3.85;;
23175;SDS011;19910;42.652;23.332;2023-07-13T02:31:51;8.13;;;3.55;;
23175;SDS011;19910;42.652;23.332;2023-07-13T02:34:18;6.18;;;3.63;;
23175;SDS011;19910;42.652;23.332;2023-07-13T02:36:45;8.23;;;3.80;;
23175;SDS011;19910;42.652;23.332;2023-07-13T02:39:12;6.75;;;4.07;;
23175;SDS011;19910;42.652;23.332;2023-07-13T02:41:40;10.70;;;3.85;;
23175;SDS011;19910;42.652;23.332;2023-07-13T02:44:07;7.82;;;4.07;;
23175;SDS011;19910;42.652;23.332;2023-07-13T02:46:34;5.57;;;3.60;;
23175;SDS011;19910;42.652;23.332;2023-07-13T02:49:04;6.75;;;4.15;;
23175;SDS011;19910;42.652;23.332;2023-07-13T02:51:31;6.70;;;3.67;;
23175;SDS011;19910;42.652;23.332;2023-07-13T02:53:59;8.27;;;4.28;;
23175;SDS011;19910;42.652;23.332;2023-07-13T02:56:26;5.40;;;3.90;;
23175;SDS011;19910;42.652;23.332;2023-07-13T02:58:54;5.90;;;4.07;;
23175;SDS011;19910;42.652;23.332;2023-07-13T03:01:21;5.90;;;4.13;;
23175;SDS011;19910;42.652;23.332;2023-07-13T03:03:49;7.00;;;3.95;;
23175;SDS011;19910;42.652;23.332;2023-07-13T03:06:17;4.60;;;3.50;;
23175;SDS011;19910;42.652;23.332;2023-07-13T03:08:45;6.85;;;4.68;;
23175;SDS011;19910;42.652;23.332;2023-07-13T03:11:12;6.97;;;4.07;;
23175;SDS011;19910;42.652;23.332;2023-07-13T03:13:41;11.48;;;4.60;;
23175;SDS011;19910;42.652;23.332;2023-07-13T03:16:08;8.57;;;4.30;;
23175;SDS011;19910;42.652;23.332;2023-07-13T03:18:36;7.47;;;4.30;;
23175;SDS011;19910;42.652;23.332;2023-07-13T03:21:04;6.68;;;4.43;;
23175;SDS011;19910;42.652;23.332;2023-07-13T03:23:32;7.28;;;4.60;;
23175;SDS011;19910;42.652;23.332;2023-07-13T03:26:03;8.70;;;4.38;;
23175;SDS011;19910;42.652;23.332;2023-07-13T03:28:31;7.80;;;4.20;;
23175;SDS011;19910;42.652;23.332;2023-07-13T03:30:59;7.25;;;4.07;;
23175;SDS011;19910;42.652;23.332;2023-07-13T03:33:26;6.60;;;4.07;;
23175;SDS011;19910;42.652;23.332;2023-07-13T03:35:53;7.22;;;4.47;;
23175;SDS011;19910;42.652;23.332;2023-07-13T03:38:20;6.15;;;5.00;;
23175;SDS011;19910;42.652;23.332;2023-07-13T03:40:48;9.98;;;4.65;;
23175;SDS011;19910;42.652;23.332;2023-07-13T03:43:15;6.88;;;4.80;;
23175;SDS011;19910;42.652;23.332;2023-07-13T03:45:41;11.20;;;5.05;;
23175;SDS011;19910;42.652;23.332;2023-07-13T03:48:08;9.23;;;5.00;;
23175;SDS011;19910;42.652;23.332;2023-07-13T03:50:35;6.63;;;4.78;;
23175;SDS011;19910;42.652;23.332;2023-07-13T03:53:03;12.90;;;7.00;;
23175;SDS011;19910;42.652;23.332;2023-07-13T03:55:31;12.95;;;5.65;;
23175;SDS011;19910;42.652;23.332;2023-07-13T03:57:59;7.45;;;4.95;;
23175;SDS011;19910;42.652;23.332;2023-07-13T04:00:27;6.28;;;5.25;;
23175;SDS011;19910;42.652;23.332;2023-07-13T04:02:56;7.63;;;5.07;;
23175;SDS011;19910;42.652;23.332;2023-07-13T04:05:23;6.18;;;5.22;;
23175;SDS011;19910;42.652;23.332;2023-07-13T04:07:50;9.48;;;5.35;;
23175;SDS011;19910;42.652;23.332;2023-07-13T04:10:17;7.00;;;5.13;;
23175;SDS011;19910;42.652;23.332;2023-07-13T04:12:43;8.85;;;5.13;;
23175;SDS011;19910;42.652;23.332;2023-07-13T04:15:12;7.68;;;5.60;;
23175;SDS011;19910;42.652;23.332;2023-07-13T04:17:38;10.02;;;5.95;;
23175;SDS011;19910;42.652;23.332;2023-07-13T04:20:06;8.55;;;5.35;;
23175;SDS011;19910;42.652;23.332;2023-07-13T04:22:33;7.65;;;5.93;;
23175;SDS011;19910;42.652;23.332;2023-07-13T04:25:00;9.13;;;6.45;;
23175;SDS011;19910;42.652;23.332;2023-07-13T04:27:27;9.00;;;6.53;;
23175;SDS011;19910;42.652;23.332;2023-07-13T04:29:53;10.70;;;6.55;;
23175;SDS011;19910;42.652;23.332;2023-07-13T04:32:22;10.25;;;6.45;;
23175;SDS011;19910;42.652;23.332;2023-07-13T04:34:48;11.93;;;7.22;;
23175;SDS011;19910;42.652;23.332;2023-07-13T04:37:19;14.15;;;6.97;;
23175;SDS011;19910;42.652;23.332;2023-07-13T04:39:46;9.80;;;6.90;;
23175;SDS011;19910;42.652;23.332;2023-07-13T04:42:13;10.25;;;7.43;;
23175;SDS011;19910;42.652;23.332;2023-07-13T04:44:40;12.38;;;7.68;;
23175;SDS011;19910;42.652;23.332;2023-07-13T04:47:06;10.60;;;7.60;;
23175;SDS011;19910;42.652;23.332;2023-07-13T04:49:35;8.40;;;7.35;;
23175;SDS011;19910;42.652;23.332;2023-07-13T04:52:02;10.48;;;7.60;;
23175;SDS011;19910;42.652;23.332;2023-07-13T04:54:29;9.63;;;7.00;;
23175;SDS011;19910;42.652;23.332;2023-07-13T04:56:55;8.93;;;7.22;;
23175;SDS011;19910;42.652;23.332;2023-07-13T04:59:22;9.60;;;7.85;;
23175;SDS011;19910;42.652;23.332;2023-07-13T05:01:49;9.55;;;6.80;;
23175;SDS011;19910;42.652;23.332;2023-07-13T05:04:16;11.93;;;7.15;;
23175;SDS011;19910;42.652;23.332;2023-07-13T05:06:44;9.55;;;7.38;;
23175;SDS011;19910;42.652;23.332;2023-07-13T05:09:11;10.38;;;7.13;;
23175;SDS011;19910;42.652;23.332;2023-07-13T05:11:38;9.43;;;7.30;;
23175;SDS011;19910;42.652;23.332;2023-07-13T05:14:05;11.90;;;8.43;;
23175;SDS011;19910;42.652;23.332;2023-07-13T05:16:32;10.15;;;7.97;;
23175;SDS011;19910;42.652;23.332;2023-07-13T05:18:59;11.48;;;8.80;;
23175;SDS011;19910;42.652;23.332;2023-07-13T05:21:25;12.23;;;9.27;;
23175;SDS011;19910;42.652;23.332;2023-07-13T05:23:54;10.82;;;8.60;;
23175;SDS011;19910;42.652;23.332;2023-07-13T05:26:20;15.70;;;9.20;;
23175;SDS011;19910;42.652;23.332;2023-07-13T05:28:47;10.90;;;9.23;;
23175;SDS011;19910;42.652;23.332;2023-07-13T05:31:14;13.20;;;8.55;;
23175;SDS011;19910;42.652;23.332;2023-07-13T05:33:41;11.80;;;8.93;;
23175;SDS011;19910;42.652;23.332;2023-07-13T05:36:08;13.38;;;8.70;;
23175;SDS011;19910;42.652;23.332;2023-07-13T05:38:35;12.80;;;9.40;;
23175;SDS011;19910;42.652;23.332;2023-07-13T05:41:06;12.70;;;8.85;;
23175;SDS011;19910;42.652;23.332;2023-07-13T05:43:34;13.60;;;8.90;;
23175;SDS011;19910;42.652;23.332;2023-07-13T05:46:01;15.05;;;9.63;;
23175;SDS011;19910;42.652;23.332;2023-07-13T05:48:28;12.57;;;9.00;;
23175;SDS011;19910;42.652;23.332;2023-07-13T05:50:55;15.82;;;8.98;;
23175;SDS011;19910;42.652;23.332;2023-07-13T05:53:21;12.27;;;9.25;;
23175;SDS011;19910;42.652;23.332;2023-07-13T05:55:48;10.35;;;8.70;;
23175;SDS011;19910;42.652;23.332;2023-07-13T05:58:19;11.40;;;8.20;;
23175;SDS011;19910;42.652;23.332;2023-07-13T06:00:57;14.70;;;9.10;;
23175;SDS011;19910;42.652;23.332;2023-07-13T06:03:26;12.13;;;8.90;;
23175;SDS011;19910;42.652;23.332;2023-07-13T06:05:52;15.05;;;9.20;;
23175;SDS011;19910;42.652;23.332;2023-07-13T06:08:19;14.45;;;9.18;;
23175;SDS011;19910;42.652;23.332;2023-07-13T06:10:46;9.85;;;8.65;;
23175;SDS011;19910;42.652;23.332;2023-07-13T06:13:13;14.20;;;9.63;;
23175;SDS011;19910;42.652;23.332;2023-07-13T06:15:41;12.68;;;8.73;;
23175;SDS011;19910;42.652;23.332;2023-07-13T06:18:08;12.15;;;8.77;;
23175;SDS011;19910;42.652;23.332;2023-07-13T06:20:34;13.15;;;8.95;;
23175;SDS011;19910;42.652;23.332;2023-07-13T06:23:01;17.23;;;10.23;;
23175;SDS011;19910;42.652;23.332;2023-07-13T06:25:29;12.88;;;9.30;;
23175;SDS011;19910;42.652;23.332;2023-07-13T06:27:56;11.68;;;8.85;;
23175;SDS011;19910;42.652;23.332;2023-07-13T06:30:23;12.00;;;8.50;;
23175;SDS011;19910;42.652;23.332;2023-07-13T06:32:51;13.27;;;8.77;;
23175;SDS011;19910;42.652;23.332;2023-07-13T06:35:18;11.73;;;7.70;;
23175;SDS011;19910;42.652;23.332;2023-07-13T06:37:45;11.27;;;8.13;;
23175;SDS011;19910;42.652;23.332;2023-07-13T06:40:13;10.63;;;8.20;;
23175;SDS011;19910;42.652;23.332;2023-07-13T06:42:40;11.48;;;7.53;;
23175;SDS011;19910;42.652;23.332;2023-07-13T06:45:07;10.15;;;6.63;;
23175;SDS011;19910;42.652;23.332;2023-07-13T06:47:34;15.23;;;7.72;;
23175;SDS011;19910;42.652;23.332;2023-07-13T06:50:02;8.55;;;6.95;;
23175;SDS011;19910;42.652;23.332;2023-07-13T06:52:29;14.15;;;7.38;;
23175;SDS011;19910;42.652;23.332;2023-07-13T06:54:56;19.23;;;7.82;;
23175;SDS011;19910;42.652;23.332;2023-07-13T06:57:23;11.63;;;6.85;;
23175;SDS011;19910;42.652;23.332;2023-07-13T06:59:50;10.43;;;6.72;;
23175;SDS011;19910;42.652;23.332;2023-07-13T07:02:16;8.32;;;6.45;;
23175;SDS011;19910;42.652;23.332;2023-07-13T07:04:43;11.98;;;6.90;;
23175;SDS011;19910;42.652;23.332;2023-07-13T07:07:11;8.45;;;6.22;;
23175;SDS011;19910;42.652;23.332;2023-07-13T07:09:38;7.57;;;6.38;;
23175;SDS011;19910;42.652;23.332;2023-07-13T07:12:05;9.40;;;6.97;;
23175;SDS011;19910;42.652;23.332;2023-07-13T07:14:32;8.45;;;6.68;;
23175;SDS011;19910;42.652;23.332;2023-07-13T07:17:00;8.13;;;6.15;;
23175;SDS011;19910;42.652;23.332;2023-07-13T07:19:27;9.18;;;7.28;;
23175;SDS011;19910;42.652;23.332;2023-07-13T07:21:54;9.70;;;6.38;;
23175;SDS011;19910;42.652;23.332;2023-07-13T07:24:22;9.88;;;6.93;;
23175;SDS011;19910;42.652;23.332;2023-07-13T07:26:48;6.97;;;5.85;;
23175;SDS011;19910;42.652;23.332;2023-07-13T07:29:15;7.28;;;6.45;;
23175;SDS011;19910;42.652;23.332;2023-07-13T07:31:42;11.55;;;6.60;;
23175;SDS011;19910;42.652;23.332;2023-07-13T07:34:09;7.75;;;6.63;;
23175;SDS011;19910;42.652;23.332;2023-07-13T07:36:35;9.57;;;6.57;;
23175;SDS011;19910;42.652;23.332;2023-07-13T07:39:02;11.25;;;6.90;;
23175;SDS011;19910;42.652;23.332;2023-07-13T07:41:31;10.00;;;6.10;;
23175;SDS011;19910;42.652;23.332;2023-07-13T07:43:58;11.48;;;6.70;;
23175;SDS011;19910;42.652;23.332;2023-07-13T07:46:24;10.18;;;6.88;;
23175;SDS011;19910;42.652;23.332;2023-07-13T07:48:51;9.95;;;6.57;;
23175;SDS011;19910;42.652;23.332;2023-07-13T07:51:18;11.00;;;6.97;;
23175;SDS011;19910;42.652;23.332;2023-07-13T07:53:45;9.48;;;6.82;;
23175;SDS011;19910;42.652;23.332;2023-07-13T07:56:12;10.70;;;6.88;;
23175;SDS011;19910;42.652;23.332;2023-07-13T07:58:40;10.55;;;6.47;;
23175;SDS011;19910;42.652;23.332;2023-07-13T08:01:07;11.88;;;7.07;;
23175;SDS011;19910;42.652;23.332;2023-07-13T08:03:34;14.48;;;7.22;;
23175;SDS011;19910;42.652;23.332;2023-07-13T08:06:01;10.15;;;6.78;;
23175;SDS011;19910;42.652;23.332;2023-07-13T08:08:28;11.27;;;7.40;;
23175;SDS011;19910;42.652;23.332;2023-07-13T08:10:55;10.60;;;7.15;;
23175;SDS011;19910;42.652;23.332;2023-07-13T08:13:21;10.10;;;6.72;;
23175;SDS011;19910;42.652;23.332;2023-07-13T08:15:49;10.80;;;6.50;;
23175;SDS011;19910;42.652;23.332;2023-07-13T08:18:16;11.07;;;6.55;;
23175;SDS011;19910;42.652;23.332;2023-07-13T08:20:43;11.65;;;6.90;;
23175;SDS011;19910;42.652;23.332;2023-07-13T08:23:11;10.60;;;6.28;;
23175;SDS011;19910;42.652;23.332;2023-07-13T08:25:38;10.07;;;6.50;;
23175;SDS011;19910;42.652;23.332;2023-07-13T08:28:05;10.68;;;6.80;;
23175;SDS011;19910;42.652;23.332;2023-07-13T08:30:31;13.07;;;7.18;;
23175;SDS011;19910;42.652;23.332;2023-07-13T08:32:59;9.98;;;6.20;;
23175;SDS011;19910;42.652;23.332;2023-07-13T08:35:27;9.45;;;6.07;;
23175;SDS011;19910;42.652;23.332;2023-07-13T08:37:53;10.85;;;6.72;;
23175;SDS011;19910;42.652;23.332;2023-07-13T08:40:22;13.55;;;7.22;;
23175;SDS011;19910;42.652;23.332;2023-07-13T08:42:53;9.30;;;6.70;;
23175;SDS011;19910;42.652;23.332;2023-07-13T08:45:23;8.27;;;6.78;;
23175;SDS011;19910;42.652;23.332;2023-07-13T08:47:55;9.98;;;6.38;;
23175;SDS011;19910;42.652;23.332;2023-07-13T08:50:30;9.45;;;6.90;;
23175;SDS011;19910;42.652;23.332;2023-07-13T08:53:00;10.68;;;6.22;;
23175;SDS011;19910;42.652;23.332;2023-07-13T08:55:30;8.25;;;6.45;;
23175;SDS011;19910;42.652;23.332;2023-07-13T08:58:03;9.55;;;6.93;;
23175;SDS011;19910;42.652;23.332;2023-07-13T09:00:38;8.05;;;6.32;;
23175;SDS011;19910;42.652;23.332;2023-07-13T09:03:12;8.35;;;6.53;;
23175;SDS011;19910;42.652;23.332;2023-07-13T09:05:48;12.40;;;6.85;;
23175;SDS011;19910;42.652;23.332;2023-07-13T09:08:25;11.63;;;6.47;;
23175;SDS011;19910;42.652;23.332;2023-07-13T09:11:06;13.45;;;6.88;;
23175;SDS011;19910;42.652;23.332;2023-07-13T09:13:42;8.25;;;7.10;;
23175;SDS011;19910;42.652;23.332;2023-07-13T09:16:12;10.85;;;6.35;;
23175;SDS011;19910;42.652;23.332;2023-07-13T09:18:41;11.73;;;7.30;;
23175;SDS011;19910;42.652;23.332;2023-07-13T09:21:12;11.63;;;6.80;;
23175;SDS011;19910;42.652;23.332;2023-07-13T09:23:42;13.30;;;7.63;;
23175;SDS011;19910;42.652;23.332;2023-07-13T09:26:10;11.93;;;7.50;;
23175;SDS011;19910;42.652;23.332;2023-07-13T09:28:41;10.00;;;7.00;;
23175;SDS011;19910;42.652;23.332;2023-07-13T09:31:11;10.80;;;7.60;;
23175;SDS011;19910;42.652;23.332;2023-07-13T09:33:41;12.30;;;7.90;;
23175;SDS011;19910;42.652;23.332;2023-07-13T09:36:18;9.80;;;7.50;;
23175;SDS011;19910;42.652;23.332;2023-07-13T09:38:48;12.02;;;7.70;;
23175;SDS011;19910;42.652;23.332;2023-07-13T09:41:21;14.43;;;7.05;;
23175;SDS011;19910;42.652;23.332;2023-07-13T09:44:06;10.32;;;7.00;;
23175;SDS011;19910;42.652;23.332;2023-07-13T09:46:36;10.27;;;7.28;;
23175;SDS011;19910;42.652;23.332;2023-07-13T09:49:04;11.18;;;7.68;;
23175;SDS011;19910;42.652;23.332;2023-07-13T09:51:32;12.07;;;7.93;;
23175;SDS011;19910;42.652;23.332;2023-07-13T09:53:59;13.00;;;7.50;;
23175;SDS011;19910;42.652;23.332;2023-07-13T09:56:27;11.00;;;7.60;;
23175;SDS011;19910;42.652;23.332;2023-07-13T09:58:55;10.50;;;7.75;;
23175;SDS011;19910;42.652;23.332;2023-07-13T10:01:33;10.98;;;7.55;;
23175;SDS011;19910;42.652;23.332;2023-07-13T10:04:02;14.05;;;7.80;;
23175;SDS011;19910;42.652;23.332;2023-07-13T10:06:39;13.32;;;7.75;;
23175;SDS011;19910;42.652;23.332;2023-07-13T10:09:08;12.65;;;8.02;;
23175;SDS011;19910;42.652;23.332;2023-07-13T10:11:36;14.95;;;7.65;;
23175;SDS011;19910;42.652;23.332;2023-07-13T10:14:09;10.38;;;7.25;;
23175;SDS011;19910;42.652;23.332;2023-07-13T10:16:38;9.75;;;7.15;;
23175;SDS011;19910;42.652;23.332;2023-07-13T10:19:10;8.90;;;6.50;;
23175;SDS011;19910;42.652;23.332;2023-07-13T10:21:43;8.60;;;6.28;;
23175;SDS011;19910;42.652;23.332;2023-07-13T10:24:17;13.10;;;6.88;;
23175;SDS011;19910;42.652;23.332;2023-07-13T10:26:49;9.25;;;6.53;;
23175;SDS011;19910;42.652;23.332;2023-07-13T10:29:22;12.32;;;7.32;;
23175;SDS011;19910;42.652;23.332;2023-07-13T10:31:52;8.98;;;6.80;;
23175;SDS011;19910;42.652;23.332;2023-07-13T10:34:18;12.38;;;6.15;;
23175;SDS011;19910;42.652;23.332;2023-07-13T10:36:47;12.25;;;6.72;;
23175;SDS011;19910;42.652;23.332;2023-07-13T10:39:16;6.05;;;3.95;;
23175;SDS011;19910;42.652;23.332;2023-07-13T10:41:45;11.80;;;6.57;;
23175;SDS011;19910;42.652;23.332;2023-07-13T10:44:18;12.65;;;5.25;;
23175;SDS011;19910;42.652;23.332;2023-07-13T10:46:51;14.65;;;6.00;;
23175;SDS011;19910;42.652;23.332;2023-07-13T10:49:20;8.23;;;5.53;;
23175;SDS011;19910;42.652;23.332;2023-07-13T10:51:49;7.32;;;4.97;;
23175;SDS011;19910;42.652;23.332;2023-07-13T10:54:18;8.38;;;4.00;;
23175;SDS011;19910;42.652;23.332;2023-07-13T10:56:49;11.80;;;4.68;;
23175;SDS011;19910;42.652;23.332;2023-07-13T10:59:20;10.73;;;4.35;;
23175;SDS011;19910;42.652;23.332;2023-07-13T11:01:54;7.80;;;3.97;;
23175;SDS011;19910;42.652;23.332;2023-07-13T11:04:24;8.93;;;4.40;;
23175;SDS011;19910;42.652;23.332;2023-07-13T11:06:56;10.00;;;4.00;;
23175;SDS011;19910;42.652;23.332;2023-07-13T11:09:33;8.35;;;4.20;;
23175;SDS011;19910;42.652;23.332;2023-07-13T11:12:09;11.13;;;4.70;;
23175;SDS011;19910;42.652;23.332;2023-07-13T11:15:09;8.23;;;4.32;;
23175;SDS011;19910;42.652;23.332;2023-07-13T11:17:46;7.45;;;4.70;;
23175;SDS011;19910;42.652;23.332;2023-07-13T11:23:15;9.98;;;4.65;;
23175;SDS011;19910;42.652;23.332;2023-07-13T11:25:45;9.10;;;4.80;;
23175;SDS011;19910;42.652;23.332;2023-07-13T11:28:15;7.65;;;4.50;;
23175;SDS011;19910;42.652;23.332;2023-07-13T11:30:46;6.72;;;4.53;;
23175;SDS011;19910;42.652;23.332;2023-07-13T11:33:16;10.88;;;5.00;;
23175;SDS011;19910;42.652;23.332;2023-07-13T11:35:49;10.18;;;4.97;;
23175;SDS011;19910;42.652;23.332;2023-07-13T11:38:21;8.93;;;4.70;;
23175;SDS011;19910;42.652;23.332;2023-07-13T11:40:54;7.40;;;4.47;;
23175;SDS011;19910;42.652;23.332;2023-07-13T11:43:22;6.80;;;4.30;;
23175;SDS011;19910;42.652;23.332;2023-07-13T11:45:50;6.22;;;4.43;;
23175;SDS011;19910;42.652;23.332;2023-07-13T11:48:18;6.50;;;4.70;;
23175;SDS011;19910;42.652;23.332;2023-07-13T11:50:49;8.27;;;4.88;;
23175;SDS011;19910;42.652;23.332;2023-07-13T11:53:25;6.43;;;4.45;;
23175;SDS011;19910;42.652;23.332;2023-07-13T11:55:54;9.43;;;4.35;;
23175;SDS011;19910;42.652;23.332;2023-07-13T11:58:23;11.23;;;4.72;;
23175;SDS011;19910;42.652;23.332;2023-07-13T12:00:53;9.05;;;4.47;;
23175;SDS011;19910;42.652;23.332;2023-07-13T12:03:24;6.72;;;4.43;;
23175;SDS011;19910;42.652;23.332;2023-07-13T12:05:55;8.70;;;4.45;;
23175;SDS011;19910;42.652;23.332;2023-07-13T12:08:27;10.60;;;5.25;;
23175;SDS011;19910;42.652;23.332;2023-07-13T12:10:59;6.35;;;4.28;;
23175;SDS011;19910;42.652;23.332;2023-07-13T12:13:34;10.30;;;4.80;;
23175;SDS011;19910;42.652;23.332;2023-07-13T12:16:02;8.55;;;5.13;;
23175;SDS011;19910;42.652;23.332;2023-07-13T12:18:41;8.20;;;4.25;;
23175;SDS011;19910;42.652;23.332;2023-07-13T12:21:12;11.13;;;4.78;;
23175;SDS011;19910;42.652;23.332;2023-07-13T12:23:44;12.73;;;4.43;;
23175;SDS011;19910;42.652;23.332;2023-07-13T12:26:14;8.07;;;4.32;;
23175;SDS011;19910;42.652;23.332;2023-07-13T12:28:44;10.15;;;4.72;;
23175;SDS011;19910;42.652;23.332;2023-07-13T12:31:24;9.85;;;5.35;;
23175;SDS011;19910;42.652;23.332;2023-07-13T12:33:56;10.73;;;5.32;;
23175;SDS011;19910;42.652;23.332;2023-07-13T12:36:24;12.90;;;5.53;;
23175;SDS011;19910;42.652;23.332;2023-07-13T12:38:53;8.50;;;5.88;;
23175;SDS011;19910;42.652;23.332;2023-07-13T12:41:20;10.52;;;5.72;;
23175;SDS011;19910;42.652;23.332;2023-07-13T12:43:48;10.82;;;5.90;;
23175;SDS011;19910;42.652;23.332;2023-07-13T12:46:17;12.90;;;6.47;;
23175;SDS011;19910;42.652;23.332;2023-07-13T12:48:48;12.02;;;5.57;;
23175;SDS011;19910;42.652;23.332;2023-07-13T12:51:16;10.77;;;5.75;;
23175;SDS011;19910;42.652;23.332;2023-07-13T12:53:48;12.85;;;5.85;;
23175;SDS011;19910;42.652;23.332;2023-07-13T12:56:19;9.05;;;5.60;;
23175;SDS011;19910;42.652;23.332;2023-07-13T12:58:49;12.48;;;6.07;;
23175;SDS011;19910;42.652;23.332;2023-07-13T13:01:20;9.40;;;6.00;;
23175;SDS011;19910;42.652;23.332;2023-07-13T13:03:49;11.68;;;6.05;;
23175;SDS011;19910;42.652;23.332;2023-07-13T13:06:21;9.63;;;5.50;;
23175;SDS011;19910;42.652;23.332;2023-07-13T13:08:50;11.23;;;6.00;;
23175;SDS011;19910;42.652;23.332;2023-07-13T13:11:21;12.15;;;6.20;;
23175;SDS011;19910;42.652;23.332;2023-07-13T13:13:49;12.40;;;6.18;;
23175;SDS011;19910;42.652;23.332;2023-07-13T13:16:19;9.95;;;5.85;;
23175;SDS011;19910;42.652;23.332;2023-07-13T13:18:48;11.57;;;6.88;;
23175;SDS011;19910;42.652;23.332;2023-07-13T13:21:15;6.65;;;5.70;;
23175;SDS011;19910;42.652;23.332;2023-07-13T13:23:42;9.95;;;5.43;;
23175;SDS011;19910;42.652;23.332;2023-07-13T13:26:11;7.70;;;5.50;;
23175;SDS011;19910;42.652;23.332;2023-07-13T13:28:42;8.30;;;5.47;;
23175;SDS011;19910;42.652;23.332;2023-07-13T13:31:10;7.50;;;5.63;;
23175;SDS011;19910;42.652;23.332;2023-07-13T13:33:38;11.55;;;5.68;;
23175;SDS011;19910;42.652;23.332;2023-07-13T13:36:10;10.75;;;6.45;;
23175;SDS011;19910;42.652;23.332;2023-07-13T13:38:40;10.15;;;5.75;;
23175;SDS011;19910;42.652;23.332;2023-07-13T13:41:08;8.88;;;6.07;;
23175;SDS011;19910;42.652;23.332;2023-07-13T13:43:36;10.00;;;5.88;;
23175;SDS011;19910;42.652;23.332;2023-07-13T13:46:05;12.77;;;5.95;;
23175;SDS011;19910;42.652;23.332;2023-07-13T13:48:40;10.63;;;5.95;;
23175;SDS011;19910;42.652;23.332;2023-07-13T13:51:12;9.77;;;5.70;;
23175;SDS011;19910;42.652;23.332;2023-07-13T13:53:41;9.38;;;5.55;;
23175;SDS011;19910;42.652;23.332;2023-07-13T13:56:08;7.40;;;5.70;;
23175;SDS011;19910;42.652;23.332;2023-07-13T13:58:35;9.90;;;5.82;;
23175;SDS011;19910;42.652;23.332;2023-07-13T14:01:02;11.38;;;5.75;;
23175;SDS011;19910;42.652;23.332;2023-07-13T14:03:32;12.60;;;6.30;;
23175;SDS011;19910;42.652;23.332;2023-07-13T14:05:59;9.68;;;6.03;;
23175;SDS011;19910;42.652;23.332;2023-07-13T14:08:26;12.77;;;5.45;;
23175;SDS011;19910;42.652;23.332;2023-07-13T14:10:53;8.27;;;5.47;;
23175;SDS011;19910;42.652;23.332;2023-07-13T14:13:24;10.50;;;5.40;;
23175;SDS011;19910;42.652;23.332;2023-07-13T14:15:53;10.13;;;5.70;;
23175;SDS011;19910;42.652;23.332;2023-07-13T14:18:20;11.77;;;5.70;;
23175;SDS011;19910;42.652;23.332;2023-07-13T14:20:50;9.80;;;5.60;;
23175;SDS011;19910;42.652;23.332;2023-07-13T14:23:17;8.25;;;4.97;;
23175;SDS011;19910;42.652;23.332;2023-07-13T14:25:44;9.10;;;5.53;;
23175;SDS011;19910;42.652;23.332;2023-07-13T14:30:56;8.10;;;4.50;;
23175;SDS011;19910;42.652;23.332;2023-07-13T14:33:23;10.50;;;5.70;;
23175;SDS011;19910;42.652;23.332;2023-07-13T14:35:51;14.90;;;5.45;;
23175;SDS011;19910;42.652;23.332;2023-07-13T14:38:19;11.60;;;5.00;;
23175;SDS011;19910;42.652;23.332;2023-07-13T14:40:46;13.45;;;5.57;;
23175;SDS011;19910;42.652;23.332;2023-07-13T14:43:14;11.45;;;4.25;;